Time;durP1;ratioP1;P1;durP2;ratioP2;P2;SDS_P1;SDS_P2;PMS_P1;PMS_P2;Temp;Humidity;BMP_temperature;BMP_pressure;BME280_temperature;BME280_humidity;BME280_pressure;Samples;Min_cycle;Max_cycle;Signal;HPM_P1;HPM_P2
2021/12/27 00:01:51;;;;;;;24.43;19.90;;;;;;;5.95;78.59;92380.97;5067702;28;20247;-79
2021/12/27 00:04:17;;;;;;;25.07;22.33;;;;;;;5.67;78.61;92337.34;5067388;28;20205;-79
2021/12/27 00:06:42;;;;;;;24.50;21.80;;;;;;;5.66;80.08;92365.09;5068078;28;20274;-80
2021/12/27 00:09:07;;;;;;;24.30;21.17;;;;;;;5.67;80.56;92381.38;5067896;28;20208;-80
2021/12/27 00:11:33;;;;;;;24.27;21.67;;;;;;;5.79;79.29;92371.59;5066507;28;20220;-80
2021/12/27 00:13:58;;;;;;;26.80;21.60;;;;;;;5.47;80.15;92352.81;5073061;28;20185;-81
2021/12/27 00:16:24;;;;;;;24.83;21.77;;;;;;;5.73;79.61;92378.56;5071203;28;20228;-80
2021/12/27 00:18:49;;;;;;;26.17;21.97;;;;;;;5.46;80.02;92335.75;5072226;28;20200;-80
2021/12/27 00:21:15;;;;;;;25.47;21.37;;;;;;;5.76;79.67;92366.94;5071216;28;20293;-79
2021/12/27 00:23:40;;;;;;;28.53;21.87;;;;;;;5.54;80.00;92340.44;5072096;28;20274;-79
2021/12/27 00:26:06;;;;;;;30.33;21.73;;;;;;;5.66;80.03;92375.44;5072793;28;20229;-80
2021/12/27 00:28:33;;;;;;;26.37;22.70;;;;;;;5.81;79.06;92377.28;5070905;28;20232;-81
2021/12/27 00:30:59;;;;;;;25.00;21.73;;;;;;;5.84;79.10;92361.25;5071992;28;20420;-81
2021/12/27 00:33:25;;;;;;;25.73;21.23;;;;;;;5.71;79.97;92369.50;5072479;28;20204;-80
2021/12/27 00:35:51;;;;;;;25.67;22.53;;;;;;;5.49;80.61;92364.50;5071706;28;20271;-81
2021/12/27 00:38:16;;;;;;;24.30;21.20;;;;;;;5.90;79.15;92380.97;5072512;28;20190;-80
2021/12/27 00:40:42;;;;;;;26.97;21.63;;;;;;;5.93;78.80;92362.34;5051275;28;21015;-81
2021/12/27 00:43:08;;;;;;;27.03;22.57;;;;;;;5.91;78.94;92369.56;5070056;28;20224;-81
2021/12/27 00:45:34;;;;;;;26.93;22.43;;;;;;;5.96;78.34;92357.41;5072228;28;20283;-81
2021/12/27 00:47:59;;;;;;;27.53;22.43;;;;;;;5.62;79.30;92368.44;5071648;28;20197;-81
2021/12/27 00:50:25;;;;;;;26.63;22.97;;;;;;;5.55;80.67;92362.69;5052248;28;20185;-81
2021/12/27 00:52:51;;;;;;;27.60;22.03;;;;;;;5.46;79.57;92328.78;5069265;28;20201;-81
2021/12/27 00:55:17;;;;;;;26.17;20.90;;;;;;;5.61;80.92;92378.00;5069031;28;20189;-80
2021/12/27 00:57:43;;;;;;;24.40;21.80;;;;;;;5.54;80.26;92338.63;5071740;28;20185;-81
2021/12/27 01:00:12;;;;;;;26.87;21.03;;;;;;;5.74;79.74;92372.38;5070209;28;20196;-80
2021/12/27 01:02:38;;;;;;;22.73;20.33;;;;;;;6.01;79.23;92367.00;5070785;28;20197;-81
2021/12/27 01:05:05;;;;;;;22.10;18.43;;;;;;;5.78;79.55;92349.31;5070895;28;20189;-81
2021/12/27 01:07:30;;;;;;;19.47;17.40;;;;;;;6.41;78.28;92374.84;5070042;28;20244;-80
2021/12/27 01:10:14;;;;;;;19.00;17.10;;;;;;;6.33;78.47;92368.34;5072222;28;20189;-80
2021/12/27 01:13:01;;;;;;;20.90;18.80;;;;;;;6.31;77.93;92370.41;5071293;28;20210;-81
2021/12/27 01:18:05;;;;;;;23.23;20.57;;;;;;;6.04;78.69;92358.69;5070740;28;20189;-81
2021/12/27 01:20:30;;;;;;;20.47;18.37;;;;;;;6.33;78.14;92372.75;5070116;28;20240;-80
2021/12/27 01:22:56;;;;;;;20.47;18.30;;;;;;;6.40;77.10;92383.63;5070226;28;20267;-80
2021/12/27 01:25:23;;;;;;;29.67;22.13;;;;;;;6.31;77.18;92372.22;5070017;28;20213;-79
2021/12/27 01:27:50;;;;;;;26.70;22.03;;;;;;;6.15;78.52;92365.47;5053082;28;20660;-81
2021/12/27 01:30:19;;;;;;;24.47;19.93;;;;;;;6.18;78.13;92359.75;5068417;28;20265;-82
2021/12/27 01:32:49;;;;;;;23.47;21.10;;;;;;;6.12;78.03;92351.22;5071959;28;20193;-81
2021/12/27 01:35:15;;;;;;;25.13;20.53;;;;;;;5.91;78.94;92360.00;5069809;28;20254;-81
2021/12/27 01:37:41;;;;;;;22.77;19.93;;;;;;;6.06;78.57;92344.47;5070879;28;20201;-81
2021/12/27 01:40:08;;;;;;;24.57;21.63;;;;;;;6.29;77.80;92369.09;5071708;28;20209;-83
2021/12/27 01:42:34;;;;;;;24.47;21.57;;;;;;;6.13;78.64;92355.34;5067535;28;20220;-83
2021/12/27 01:44:59;;;;;;;25.43;20.73;;;;;;;6.16;78.76;92356.66;5070153;28;21342;-81
2021/12/27 01:47:27;;;;;;;21.00;18.40;;;;;;;5.96;79.43;92343.69;5048581;28;20229;-81
2021/12/27 01:49:53;;;;;;;22.03;17.70;;;;;;;6.03;79.66;92336.44;5068431;28;20519;-83
2021/12/27 01:52:23;;;;;;;23.63;19.27;;;;;;;5.44;78.66;92229.09;5069738;28;20245;-81
2021/12/27 01:54:51;;;;;;;20.87;18.47;;;;;;;6.09;79.30;92351.72;5070673;28;20193;-82
2021/12/27 01:57:16;;;;;;;23.87;19.77;;;;;;;5.90;78.74;92300.69;5048488;28;20237;-82
2021/12/27 01:59:41;;;;;;;20.43;18.13;;;;;;;6.31;78.28;92354.88;5070462;28;20181;-82
2021/12/27 02:02:07;;;;;;;20.70;18.73;;;;;;;6.35;77.96;92335.16;5067093;28;20288;-82
2021/12/27 02:04:33;;;;;;;20.87;17.93;;;;;;;6.45;78.80;92350.72;5051467;28;20214;-82
2021/12/27 02:06:58;;;;;;;23.70;19.37;;;;;;;5.93;80.47;92305.34;5069866;28;20221;-82
2021/12/27 02:09:33;;;;;;;21.20;18.80;;;;;;;6.23;81.00;92346.81;5069752;28;20196;-82
2021/12/27 02:11:59;;;;;;;21.00;18.67;;;;;;;6.14;81.91;92317.28;5070708;28;20234;-81
2021/12/27 02:14:24;;;;;;;20.00;17.93;;;;;;;6.47;81.21;92333.06;5067914;28;20189;-81
2021/12/27 02:16:50;;;;;;;24.20;19.40;;;;;;;6.37;81.66;92343.47;5067802;28;20213;-82
2021/12/27 02:19:15;;;;;;;21.07;18.83;;;;;;;6.25;81.96;92340.34;5071144;28;20200;-82
2021/12/27 02:21:40;;;;;;;21.37;18.90;;;;;;;6.20;81.98;92332.56;5069957;28;20240;-82
2021/12/27 02:24:08;;;;;;;23.93;18.83;;;;;;;6.19;83.28;92335.41;5069749;28;20240;-81
2021/12/27 02:26:33;;;;;;;22.67;19.70;;;;;;;5.80;84.25;92313.56;5067833;28;20256;-82
2021/12/27 02:28:59;;;;;;;21.53;17.83;;;;;;;5.86;84.91;92305.59;5068187;28;20190;-81
2021/12/27 02:31:24;;;;;;;22.33;20.03;;;;;;;5.81;85.63;92322.88;5069685;28;20281;-81
2021/12/27 02:33:50;;;;;;;24.40;21.73;;;;;;;5.87;85.19;92306.34;5069539;28;20265;-81
2021/12/27 02:36:15;;;;;;;23.23;19.33;;;;;;;5.90;84.38;92301.44;5057372;28;20252;-81
2021/12/27 02:38:43;;;;;;;22.97;20.33;;;;;;;5.95;83.50;92311.03;5052549;28;20185;-82
2021/12/27 02:41:10;;;;;;;22.37;19.27;;;;;;;5.94;84.25;92306.88;5068581;28;20293;-81
2021/12/27 02:43:38;;;;;;;22.60;19.47;;;;;;;5.92;83.52;92304.56;5068699;28;20851;-82
2021/12/27 02:46:06;;;;;;;26.00;21.87;;;;;;;5.90;83.14;92316.22;5069925;28;21023;-82
2021/12/27 02:48:35;;;;;;;26.20;23.37;;;;;;;5.68;82.16;92261.25;5067254;28;20185;-82
2021/12/27 02:51:01;;;;;;;30.47;22.33;;;;;;;5.86;81.70;92289.25;5050975;28;20236;-81
2021/12/27 02:53:28;;;;;;;27.17;22.00;;;;;;;5.60;83.07;92287.63;5068972;28;20606;-81
2021/12/27 02:55:56;;;;;;;26.87;23.10;;;;;;;6.05;81.12;92329.19;5048304;28;20225;-82
2021/12/27 02:58:22;;;;;;;24.80;21.40;;;;;;;5.69;82.58;92294.66;5070118;28;20182;-82
2021/12/27 03:01:01;;;;;;;24.93;21.33;;;;;;;5.83;82.14;92323.44;5068093;28;20221;-80
2021/12/27 03:03:27;;;;;;;20.50;18.17;;;;;;;5.76;83.26;92304.78;5051083;28;20204;-81
2021/12/27 03:05:53;;;;;;;19.37;17.23;;;;;;;5.84;83.17;92292.09;5049765;28;20237;-82
2021/12/27 03:08:20;;;;;;;18.10;16.50;;;;;;;5.96;83.11;92312.59;5067251;28;20237;-81
2021/12/27 03:10:49;;;;;;;19.60;17.80;;;;;;;6.07;82.99;92291.59;5068563;28;20230;-82
2021/12/27 03:13:20;;;;;;;15.87;14.43;;;;;;;6.19;82.54;92289.56;5069682;28;20193;-81
2021/12/27 03:15:53;;;;;;;17.87;16.13;;;;;;;6.23;83.06;92300.16;5067705;28;20244;-81
2021/12/27 03:18:19;;;;;;;15.77;14.23;;;;;;;6.15;82.54;92272.16;5068864;28;20197;-82
2021/12/27 03:20:45;;;;;;;16.97;15.20;;;;;;;6.53;81.16;92294.97;5066091;28;20229;-82
2021/12/27 03:23:10;;;;;;;16.27;14.87;;;;;;;6.58;81.01;92302.75;5068505;28;20300;-82
2021/12/27 03:25:36;;;;;;;18.60;16.57;;;;;;;6.45;80.15;92277.34;5070224;28;20225;-82
2021/12/27 03:28:02;;;;;;;17.50;15.83;;;;;;;6.68;79.27;92294.19;5068935;28;20194;-80
2021/12/27 03:30:28;;;;;;;19.23;17.33;;;;;;;6.64;78.73;92299.09;5067377;28;20309;-81
2021/12/27 03:32:54;;;;;;;17.70;16.00;;;;;;;6.55;78.85;92291.06;5069575;28;20810;-81
2021/12/27 03:35:29;;;;;;;18.33;16.60;;;;;;;6.44;79.24;92281.00;5066329;28;20193;-82
2021/12/27 03:37:56;;;;;;;17.67;15.77;;;;;;;6.25;80.23;92285.13;5067302;28;20203;-82
2021/12/27 03:40:22;;;;;;;18.17;16.57;;;;;;;6.26;80.57;92286.69;5065272;28;20181;-81
2021/12/27 03:42:50;;;;;;;17.77;15.87;;;;;;;6.29;80.32;92288.75;5048183;28;20215;-83
2021/12/27 03:45:21;;;;;;;17.97;16.27;;;;;;;5.92;81.36;92249.38;5067377;28;20193;-81
2021/12/27 03:47:48;;;;;;;17.57;15.97;;;;;;;6.01;81.48;92266.72;5067717;28;20181;-81
2021/12/27 03:50:14;;;;;;;16.90;15.33;;;;;;;5.77;82.56;92254.53;5067094;28;20193;-83
2021/12/27 03:52:39;;;;;;;18.10;16.13;;;;;;;6.04;81.54;92265.44;5068204;28;20181;-82
2021/12/27 03:55:06;;;;;;;17.53;15.80;;;;;;;5.91;82.08;92269.34;5067109;28;20203;-81
2021/12/27 03:57:34;;;;;;;16.13;14.73;;;;;;;6.14;80.69;92248.09;5067347;28;20221;-80
2021/12/27 04:00:31;;;;;;;19.53;16.83;;;;;;;6.01;81.11;92256.38;5050216;28;20186;-81
2021/12/27 04:02:59;;;;;;;18.37;16.67;;;;;;;5.98;81.83;92263.88;5045296;28;20248;-82
2021/12/27 04:05:25;;;;;;;18.80;16.80;;;;;;;5.75;82.70;92265.13;5049048;28;20178;-82
2021/12/27 04:08:00;;;;;;;16.90;15.30;;;;;;;5.63;82.09;92237.94;5068571;28;20188;-82
2021/12/27 04:10:27;;;;;;;16.97;15.47;;;;;;;5.78;82.28;92269.00;5066575;28;20188;-83
2021/12/27 04:12:52;;;;;;;16.30;15.10;;;;;;;5.99;82.60;92273.97;5069212;28;20181;-81
2021/12/27 04:15:17;;;;;;;16.67;14.20;;;;;;;5.93;82.16;92271.66;5068579;28;20213;-82
2021/12/27 04:17:43;;;;;;;17.50;15.73;;;;;;;6.09;81.37;92283.56;5066538;28;20212;-81
2021/12/27 04:20:08;;;;;;;15.90;14.30;;;;;;;5.88;81.91;92277.59;5050046;28;20253;-81
2021/12/27 04:22:34;;;;;;;16.87;15.27;;;;;;;6.14;81.43;92299.13;5067541;28;20224;-82
2021/12/27 04:25:03;;;;;;;17.30;15.00;;;;;;;6.01;81.80;92297.81;5068159;28;20221;-81
2021/12/27 04:27:29;;;;;;;16.80;15.20;;;;;;;5.94;82.42;92302.50;5067420;28;20229;-82
2021/12/27 04:29:54;;;;;;;16.13;14.57;;;;;;;6.15;82.03;92300.69;5066580;28;20200;-82
2021/12/27 04:32:20;;;;;;;16.80;15.27;;;;;;;5.90;81.21;92238.50;5067816;28;20217;-82
2021/12/27 04:34:46;;;;;;;15.77;14.30;;;;;;;5.98;81.74;92282.81;5065739;28;20205;-81
2021/12/27 04:37:11;;;;;;;15.93;14.63;;;;;;;5.94;81.82;92263.63;5065612;28;20213;-81
2021/12/27 04:39:37;;;;;;;16.03;14.63;;;;;;;5.95;81.74;92296.28;5067453;28;20185;-83
2021/12/27 04:42:05;;;;;;;15.87;14.23;;;;;;;5.97;81.69;92293.41;5066607;28;20229;-82
2021/12/27 04:44:31;;;;;;;16.47;14.77;;;;;;;6.05;81.69;92295.50;5067845;28;20209;-83
2021/12/27 04:46:57;;;;;;;16.30;15.00;;;;;;;6.14;81.01;92296.53;5068369;28;20259;-83
2021/12/27 04:49:22;;;;;;;15.87;14.47;;;;;;;5.97;80.65;92270.09;5065900;28;20212;-81
2021/12/27 04:51:48;;;;;;;17.30;15.73;;;;;;;6.04;81.44;92299.13;5068893;28;20255;-82
2021/12/27 04:54:13;;;;;;;17.07;15.57;;;;;;;6.05;81.74;92292.91;5066165;28;20197;-82
2021/12/27 04:56:39;;;;;;;15.87;14.50;;;;;;;6.04;81.97;92306.88;5067848;28;20213;-81
2021/12/27 04:59:04;;;;;;;16.63;15.23;;;;;;;6.06;80.54;92284.09;5069614;28;20191;-75
2021/12/27 05:01:30;;;;;;;16.57;15.07;;;;;;;5.96;81.12;92297.06;5070176;28;20298;-73
2021/12/27 05:03:55;;;;;;;15.33;13.87;;;;;;;6.35;79.40;92319.59;5071183;28;20217;-74
2021/12/27 05:06:21;;;;;;;17.13;14.70;;;;;;;6.23;79.57;92311.31;5053619;28;20237;-74
2021/12/27 05:08:48;;;;;;;17.70;16.00;;;;;;;6.10;80.51;92318.84;5070329;28;20195;-74
2021/12/27 05:11:14;;;;;;;17.33;15.63;;;;;;;6.02;81.08;92319.34;5072485;28;20258;-74
2021/12/27 05:13:40;;;;;;;15.93;14.30;;;;;;;5.75;81.33;92285.06;5069705;28;20217;-74
2021/12/27 05:16:05;;;;;;;17.93;16.07;;;;;;;5.61;82.63;92291.78;5069357;28;20229;-74
2021/12/27 05:18:31;;;;;;;17.83;15.87;;;;;;;5.70;82.33;92300.59;5071825;28;20215;-74
2021/12/27 05:20:56;;;;;;;18.23;16.53;;;;;;;5.55;82.26;92261.72;5068647;28;20311;-75
2021/12/27 05:23:22;;;;;;;16.33;14.90;;;;;;;5.62;82.29;92298.53;5070290;28;20237;-74
2021/12/27 05:25:47;;;;;;;17.57;16.07;;;;;;;5.70;82.40;92295.41;5070529;28;20244;-74
2021/12/27 05:28:13;;;;;;;18.00;16.43;;;;;;;5.63;82.19;92300.84;5068570;28;20259;-74
2021/12/27 05:30:41;;;;;;;18.63;16.53;;;;;;;5.82;81.54;92299.34;5053002;28;20225;-76
2021/12/27 05:33:07;;;;;;;17.93;16.07;;;;;;;5.89;80.79;92281.75;5071584;28;20251;-74
2021/12/27 05:35:32;;;;;;;16.43;14.83;;;;;;;5.87;81.20;92291.59;5068873;28;20221;-74
2021/12/27 05:37:58;;;;;;;17.00;14.97;;;;;;;5.95;81.23;92285.91;5071454;28;20204;-74
2021/12/27 05:40:24;;;;;;;18.27;16.53;;;;;;;6.06;81.22;92286.69;5069632;28;20192;-74
2021/12/27 05:42:51;;;;;;;17.53;15.73;;;;;;;6.28;80.42;92300.97;5052494;28;20185;-74
2021/12/27 05:45:18;;;;;;;18.97;17.30;;;;;;;6.23;80.58;92284.63;5070879;28;20253;-74
2021/12/27 05:47:44;;;;;;;17.07;15.47;;;;;;;6.28;81.13;92294.97;5069661;28;20223;-74
2021/12/27 05:50:11;;;;;;;15.87;14.43;;;;;;;6.31;79.75;92297.84;5069580;28;20250;-74
2021/12/27 05:52:37;;;;;;;15.83;14.40;;;;;;;6.53;78.80;92306.13;5070027;28;20929;-74
2021/12/27 05:55:04;;;;;;;16.43;14.73;;;;;;;6.64;79.15;92316.47;5068692;28;20269;-73
2021/12/27 05:57:30;;;;;;;16.70;15.10;;;;;;;6.44;78.50;92306.91;5069403;28;20255;-74
2021/12/27 05:59:56;;;;;;;18.10;16.30;;;;;;;6.62;78.05;92308.97;5067847;28;20220;-74
2021/12/27 06:02:21;;;;;;;18.17;16.47;;;;;;;6.31;79.31;92318.59;5069197;28;20228;-74
2021/12/27 06:04:47;;;;;;;18.20;16.50;;;;;;;6.42;79.11;92314.16;5071021;28;20274;-73
2021/12/27 06:07:12;;;;;;;18.03;16.17;;;;;;;6.19;79.54;92319.88;5067905;28;20217;-74
2021/12/27 06:09:38;;;;;;;16.97;15.17;;;;;;;6.38;79.94;92313.16;5052535;28;20198;-81
2021/12/27 06:12:04;;;;;;;16.67;15.17;;;;;;;6.28;79.64;92287.22;5067454;28;20214;-79
2021/12/27 06:14:30;;;;;;;17.03;15.53;;;;;;;6.34;78.66;92265.44;5068989;28;20198;-80
2021/12/27 06:16:55;;;;;;;16.57;15.07;;;;;;;6.34;79.15;92286.16;5071352;28;20221;-79
2021/12/27 06:19:21;;;;;;;15.53;14.13;;;;;;;6.15;78.62;92257.41;5068764;28;20197;-79
2021/12/27 06:21:47;;;;;;;16.73;14.97;;;;;;;6.33;79.63;92300.19;5069070;28;20289;-80
2021/12/27 06:24:12;;;;;;;16.07;14.63;;;;;;;6.22;80.17;92293.44;5055977;28;20217;-79
2021/12/27 06:26:38;;;;;;;15.70;14.30;;;;;;;6.21;79.94;92294.47;5069482;28;20250;-79
2021/12/27 06:29:03;;;;;;;16.67;15.10;;;;;;;6.62;78.70;92302.97;5070462;28;20193;-78
2021/12/27 06:31:29;;;;;;;15.23;13.83;;;;;;;6.33;80.17;92295.00;5069005;28;20225;-78
2021/12/27 06:33:54;;;;;;;15.80;14.40;;;;;;;6.35;81.05;92300.69;5069566;28;20185;-79
2021/12/27 06:36:20;;;;;;;16.63;14.97;;;;;;;6.31;80.67;92276.31;5067978;28;20213;-81
2021/12/27 06:38:45;;;;;;;16.33;14.83;;;;;;;6.38;80.79;92282.78;5068286;28;20185;-75
2021/12/27 06:41:11;;;;;;;18.37;16.10;;;;;;;6.21;82.69;92261.56;5068917;28;20237;-73
2021/12/27 06:43:50;;;;;;;18.13;16.63;;;;;;;6.45;81.33;92241.84;5067239;28;20286;-77
2021/12/27 06:46:16;;;;;;;20.93;18.30;;;;;;;6.22;82.13;92236.41;5066400;28;20225;-75
2021/12/27 06:48:41;;;;;;;19.80;18.00;;;;;;;6.10;82.61;92233.31;5066619;28;21065;-71
2021/12/27 06:51:07;;;;;;;18.20;16.70;;;;;;;5.98;83.38;92261.28;5066493;28;20217;-74
2021/12/27 06:53:32;;;;;;;19.50;17.70;;;;;;;6.23;82.14;92266.47;5067353;28;20203;-75
2021/12/27 06:55:58;;;;;;;18.03;16.33;;;;;;;6.54;80.60;92270.59;5067400;28;20240;-74
2021/12/27 06:58:24;;;;;;;18.30;16.40;;;;;;;6.61;79.88;92273.69;5066550;28;20205;-74
2021/12/27 07:00:51;;;;;;;19.30;16.87;;;;;;;6.63;79.56;92268.25;5065886;28;20225;-76
2021/12/27 07:03:16;;;;;;;20.27;18.33;;;;;;;6.27;81.78;92270.13;5050399;28;20251;-73
2021/12/27 07:05:43;;;;;;;22.00;18.63;;;;;;;6.48;80.12;92261.25;5054588;28;20241;-75
2021/12/27 07:08:09;;;;;;;19.33;17.50;;;;;;;6.52;80.29;92263.06;5051433;28;20201;-77
2021/12/27 07:10:35;;;;;;;20.00;18.00;;;;;;;6.63;80.28;92266.41;5067455;28;20225;-78
2021/12/27 07:13:03;;;;;;;21.77;19.37;;;;;;;6.57;80.19;92264.88;5068293;28;20220;-76
2021/12/27 07:15:30;;;;;;;20.97;19.17;;;;;;;6.60;80.54;92269.53;5068221;28;20742;-75
2021/12/27 07:17:56;;;;;;;23.30;18.83;;;;;;;6.44;80.11;92211.00;5066661;28;20193;-82
2021/12/27 07:20:22;;;;;;;20.63;18.73;;;;;;;6.69;79.05;92215.31;5064905;28;21160;-79
2021/12/27 07:22:47;;;;;;;21.53;19.30;;;;;;;6.73;80.13;92256.03;5048189;28;20225;-77
2021/12/27 07:25:13;;;;;;;18.73;17.03;;;;;;;6.55;80.53;92244.38;5065212;28;20197;-79
2021/12/27 07:27:39;;;;;;;18.57;16.60;;;;;;;6.88;80.97;92266.34;5067284;28;20181;-77
2021/12/27 07:30:07;;;;;;;19.10;17.17;;;;;;;6.84;80.24;92262.75;5067644;28;20189;-82
2021/12/27 07:32:33;;;;;;;19.93;18.03;;;;;;;7.04;79.52;92249.69;5064361;28;20205;-80
2021/12/27 07:34:59;;;;;;;20.03;17.97;;;;;;;6.93;79.50;92242.22;5066535;28;20263;-83
2021/12/27 07:37:24;;;;;;;18.93;17.03;;;;;;;7.13;80.17;92268.88;5062986;28;20229;-85
2021/12/27 07:39:49;;;;;;;19.77;17.93;;;;;;;6.93;79.41;92217.03;5064684;28;20268;-85
2021/12/27 07:42:15;;;;;;;17.07;15.77;;;;;;;7.07;79.22;92199.88;5063388;28;20232;-84
2021/12/27 07:44:41;;;;;;;16.97;15.40;;;;;;;7.61;78.74;92260.34;5048392;28;20274;-87
2021/12/27 07:47:06;;;;;;;29.60;26.37;;;;;;;7.47;79.23;92248.97;5065097;28;20213;-83
2021/12/27 07:49:32;;;;;;;22.67;19.23;;;;;;;7.57;78.24;92232.56;5064401;28;20875;-81
2021/12/27 07:51:58;;;;;;;17.47;15.97;;;;;;;7.79;78.40;92264.91;5066592;28;20245;-80
2021/12/27 07:54:23;;;;;;;16.97;15.43;;;;;;;7.64;78.17;92251.25;5062747;28;20306;-83
2021/12/27 07:56:48;;;;;;;19.23;17.13;;;;;;;7.56;77.95;92242.19;5064538;28;20225;-78
2021/12/27 07:59:14;;;;;;;17.57;15.97;;;;;;;7.94;77.36;92259.59;5066140;28;20193;-79
2021/12/27 08:01:40;;;;;;;18.63;16.80;;;;;;;7.89;76.46;92249.25;5065211;28;20220;-79
2021/12/27 08:04:08;;;;;;;18.63;16.83;;;;;;;7.64;77.52;92240.84;5069608;28;20280;-81
2021/12/27 08:06:34;;;;;;;17.90;16.10;;;;;;;7.90;77.67;92256.00;5066573;28;20229;-80
2021/12/27 08:09:00;;;;;;;18.17;16.47;;;;;;;7.88;77.65;92265.09;5068761;28;20188;-81
2021/12/27 08:11:26;;;;;;;18.10;16.20;;;;;;;7.92;77.34;92247.94;5066579;28;20284;-78
2021/12/27 08:13:52;;;;;;;18.80;17.00;;;;;;;7.81;77.90;92223.81;5066974;28;20186;-77
2021/12/27 08:16:23;;;;;;;18.70;17.10;;;;;;;8.10;77.51;92258.47;5063770;28;20237;-76
2021/12/27 08:18:50;;;;;;;16.83;15.43;;;;;;;8.32;76.50;92250.25;5064626;28;20229;-75
2021/12/27 08:21:16;;;;;;;16.77;15.03;;;;;;;8.22;76.66;92270.34;5067097;28;20213;-75
2021/12/27 08:23:42;;;;;;;17.43;15.77;;;;;;;8.61;75.27;92258.03;5066168;28;20202;-75
2021/12/27 08:26:08;;;;;;;18.53;16.83;;;;;;;8.46;74.59;92245.19;5065157;28;20255;-76
2021/12/27 08:28:33;;;;;;;18.40;16.47;;;;;;;8.26;76.44;92255.75;5063646;28;20189;-75
2021/12/27 08:30:59;;;;;;;20.03;18.00;;;;;;;8.07;75.99;92201.81;5066733;28;20255;-79
2021/12/27 08:33:24;;;;;;;19.93;17.83;;;;;;;8.17;76.98;92245.91;5069034;28;20192;-80
2021/12/27 08:35:50;;;;;;;18.40;16.60;;;;;;;7.90;76.48;92217.03;5067276;28;20225;-83
2021/12/27 08:38:18;;;;;;;16.90;15.27;;;;;;;8.66;74.72;92234.59;5070675;28;20195;-87
2021/12/27 08:40:43;;;;;;;17.07;15.57;;;;;;;8.76;75.28;92250.13;5070518;28;20228;-84
2021/12/27 08:43:09;;;;;;;17.20;15.63;;;;;;;8.99;72.39;92246.75;5070734;28;20209;-89
2021/12/27 08:45:34;;;;;;;13.43;12.43;;;;;;;9.31;70.25;92257.28;5046863;28;20237;-78
2021/12/27 08:48:00;;;;;;;17.13;15.80;;;;;;;9.43;70.92;92249.88;5052957;28;20186;-78
2021/12/27 08:50:25;;;;;;;18.90;17.17;;;;;;;9.27;72.02;92266.72;5068221;28;20208;-82
2021/12/27 08:52:51;;;;;;;18.53;16.73;;;;;;;9.31;72.25;92242.44;5069705;28;20190;-79
2021/12/27 08:55:16;;;;;;;17.80;16.20;;;;;;;9.26;71.80;92228.72;5049274;28;20197;-79
2021/12/27 08:57:42;;;;;;;18.40;16.70;;;;;;;8.97;73.91;92215.78;5066605;28;20185;-79
2021/12/27 09:00:10;;;;;;;16.80;15.37;;;;;;;9.28;72.22;92245.63;5070985;28;20197;-79
2021/12/27 09:02:36;;;;;;;17.47;14.70;;;;;;;9.11;71.68;92203.63;5071107;28;20284;-78
2021/12/27 09:05:02;;;;;;;17.10;15.37;;;;;;;9.08;72.59;92216.44;5070364;28;20213;-83
2021/12/27 09:07:28;;;;;;;14.43;13.33;;;;;;;9.25;72.04;92201.13;5067227;28;20235;-82
2021/12/27 09:09:53;;;;;;;15.57;14.17;;;;;;;9.51;69.82;92186.69;5070451;28;20248;-79
2021/12/27 09:12:19;;;;;;;15.73;14.30;;;;;;;9.76;69.55;92201.97;5070702;28;20244;-84
2021/12/27 09:14:45;;;;;;;13.80;12.80;;;;;;;9.25;71.01;92181.06;5050022;28;20229;-85
2021/12/27 09:17:10;;;;;;;15.03;13.80;;;;;;;9.65;69.63;92216.19;5068999;28;20208;-83
2021/12/27 09:19:36;;;;;;;13.77;12.57;;;;;;;9.45;70.80;92206.84;5065641;28;20217;-81
2021/12/27 09:22:03;;;;;;;17.40;15.73;;;;;;;9.93;69.66;92202.25;5065620;28;20226;-79
2021/12/27 09:24:31;;;;;;;17.17;15.47;;;;;;;9.62;71.02;92175.84;5070030;28;20239;-78
2021/12/27 09:26:58;;;;;;;22.70;20.33;;;;;;;9.72;70.53;92195.78;5047985;28;20229;-79
2021/12/27 09:29:23;;;;;;;25.73;20.63;;;;;;;9.33;71.20;92171.84;5069958;28;20215;-82
2021/12/27 09:31:50;;;;;;;20.87;18.63;;;;;;;9.51;70.45;92152.81;5066914;28;20221;-79
2021/12/27 09:34:16;;;;;;;14.07;12.97;;;;;;;9.82;70.02;92153.16;5068620;28;20178;-84
2021/12/27 09:36:41;;;;;;;13.73;12.40;;;;;;;11.10;65.11;92151.13;5068402;28;20641;-77
2021/12/27 09:39:07;;;;;;;12.80;11.50;;;;;;;10.80;66.73;92154.31;5071458;28;20244;-78
2021/12/27 09:41:33;;;;;;;12.57;11.63;;;;;;;10.73;66.11;92140.91;5053336;28;20221;-79
2021/12/27 09:43:58;;;;;;;12.27;11.27;;;;;;;10.75;66.08;92135.38;5070135;28;20228;-80
2021/12/27 09:46:24;;;;;;;12.33;11.43;;;;;;;11.14;64.83;92130.41;5067387;28;20228;-78
2021/12/27 09:48:53;;;;;;;14.67;12.00;;;;;;;11.33;65.38;92138.91;5066864;28;20197;-76
2021/12/27 09:51:19;;;;;;;11.40;10.60;;;;;;;11.35;63.87;92123.69;5069352;28;20236;-75
2021/12/27 09:53:45;;;;;;;10.33;9.83;;;;;;;11.52;63.38;92113.38;5070936;28;20197;-76
2021/12/27 09:56:11;;;;;;;10.03;9.50;;;;;;;11.97;64.60;92128.03;5068947;28;20225;-78
2021/12/27 09:58:37;;;;;;;10.43;9.83;;;;;;;12.18;61.67;92130.94;5070987;28;20189;-82
2021/12/27 10:01:05;;;;;;;9.43;8.73;;;;;;;12.34;66.01;92124.28;5068606;28;20290;-78
2021/12/27 10:03:44;;;;;;;11.07;10.13;;;;;;;12.24;62.07;92088.66;5069534;28;20232;-78
2021/12/27 10:06:11;;;;;;;10.87;10.07;;;;;;;12.25;60.34;92131.31;5068289;28;20234;-78
2021/12/27 10:08:37;;;;;;;23.10;17.13;;;;;;;11.15;64.01;92137.97;5069424;28;20221;-77
2021/12/27 10:11:02;;;;;;;17.53;15.57;;;;;;;10.86;66.12;92168.06;5071741;28;20710;-76
2021/12/27 10:13:28;;;;;;;15.33;13.83;;;;;;;11.12;63.43;92115.03;5050298;28;20280;-78
2021/12/27 10:15:55;;;;;;;16.53;14.93;;;;;;;11.51;62.79;92137.97;5049016;28;20229;-77
2021/12/27 10:18:23;;;;;;;16.03;14.43;;;;;;;11.17;64.23;92154.09;5068817;28;20190;-75
2021/12/27 10:20:48;;;;;;;19.90;16.67;;;;;;;11.16;65.33;92157.00;5067890;28;20220;-79
2021/12/27 10:23:18;;;;;;;15.40;13.97;;;;;;;11.06;64.61;92165.84;5067181;28;20230;-76
2021/12/27 10:25:44;;;;;;;16.30;14.80;;;;;;;11.35;64.20;92152.44;5068339;28;20237;-78
2021/12/27 10:28:09;;;;;;;16.00;14.43;;;;;;;11.32;64.28;92135.50;5069717;28;20192;-77
2021/12/27 10:30:43;;;;;;;14.03;12.77;;;;;;;11.52;62.34;92176.09;5067641;28;20233;-76
2021/12/27 10:33:14;;;;;;;13.53;12.20;;;;;;;11.56;62.05;92150.16;5066807;28;20201;-77
2021/12/27 10:35:44;;;;;;;13.73;12.40;;;;;;;11.65;60.90;92114.41;5069804;28;20217;-77
2021/12/27 10:38:24;;;;;;;14.17;12.77;;;;;;;11.90;60.27;92135.53;5069205;28;20194;-76
2021/12/27 10:40:53;;;;;;;11.93;11.13;;;;;;;11.42;60.82;92060.56;5069612;28;20231;-76
2021/12/27 10:43:41;;;;;;;10.20;9.50;;;;;;;12.01;60.12;92094.22;5051270;28;20272;-76
2021/12/27 10:46:10;;;;;;;9.43;9.03;;;;;;;12.12;58.80;92126.91;5065807;28;20260;-76
2021/12/27 10:48:46;;;;;;;9.23;8.83;;;;;;;12.24;60.01;92082.63;5067029;28;20193;-76
2021/12/27 10:51:12;;;;;;;8.87;8.27;;;;;;;12.15;58.51;92100.16;5068194;28;20271;-75
2021/12/27 10:53:59;;;;;;;9.73;9.13;;;;;;;12.68;57.91;92108.72;5047978;28;20284;-77
2021/12/27 10:56:27;;;;;;;9.73;9.13;;;;;;;12.95;57.60;92109.25;5067987;28;20698;-77
2021/12/27 10:58:54;;;;;;;8.77;8.37;;;;;;;13.09;55.75;92118.88;5068449;28;20189;-77
2021/12/27 11:01:22;;;;;;;9.37;8.57;;;;;;;13.00;55.91;92090.03;5066118;28;20237;-77
2021/12/27 11:03:52;;;;;;;9.50;9.10;;;;;;;12.90;55.73;92153.16;5068759;28;20276;-76
2021/12/27 11:06:24;;;;;;;9.47;8.77;;;;;;;12.98;56.02;92138.53;5066392;28;20223;-76
2021/12/27 11:08:51;;;;;;;9.40;8.93;;;;;;;13.37;54.42;92099.19;5068185;28;20237;-76
2021/12/27 11:11:19;;;;;;;8.43;8.03;;;;;;;13.20;54.37;92086.81;5059430;28;20256;-77
2021/12/27 11:13:46;;;;;;;9.07;8.67;;;;;;;13.22;54.04;92123.97;5067370;28;20199;-76
2021/12/27 11:16:12;;;;;;;10.03;9.40;;;;;;;12.97;54.67;92101.09;5068546;28;20228;-77
2021/12/27 11:18:37;;;;;;;9.80;9.20;;;;;;;12.63;57.94;92117.47;5065759;28;20189;-76
2021/12/27 11:21:09;;;;;;;9.73;9.10;;;;;;;12.85;56.17;92098.28;5065851;28;20270;-78
2021/12/27 11:23:36;;;;;;;10.63;9.70;;;;;;;12.46;57.18;92090.44;5067199;28;20235;-79
2021/12/27 11:26:06;;;;;;;9.60;8.90;;;;;;;11.82;57.97;92043.94;5050248;28;20233;-79